Time;durP1;ratioP1;P1;durP2;ratioP2;P2;SDS_P1;SDS_P2;PMS_P1;PMS_P2;Temp;Humidity;BMP_temperature;BMP_pressure;BME280_temperature;BME280_humidity;BME280_pressure;Samples;Min_cycle;Max_cycle;Signal;HPM_P1;HPM_P2
2021/01/28 00:01:29;;;;;;;154.32;43.25;;;6.00;99.90;;;;;;4980208;28;20221;-81
2021/01/28 00:03:56;;;;;;;151.98;44.63;;;6.00;99.90;;;;;;4979695;28;20201;-79
2021/01/28 00:06:22;;;;;;;162.05;45.35;;;6.00;99.90;;;;;;4979507;28;20217;-81
2021/01/28 00:08:48;;;;;;;152.38;43.78;;;6.00;99.90;;;;;;4979214;28;20255;-81
2021/01/28 00:11:15;;;;;;;143.48;40.47;;;6.00;99.90;;;;;;4979739;28;20242;-81
2021/01/28 00:13:42;;;;;;;157.50;42.72;;;6.00;99.90;;;;;;4978846;28;20292;-82
2021/01/28 00:16:08;;;;;;;129.68;39.58;;;6.00;99.90;;;;;;4979603;28;20185;-82
2021/01/28 00:18:34;;;;;;;123.43;39.15;;;6.00;99.90;;;;;;4979328;28;20193;-81
2021/01/28 00:21:01;;;;;;;115.32;38.85;;;5.90;99.90;;;;;;4978917;28;20207;-81
2021/01/28 00:23:27;;;;;;;146.25;40.25;;;5.90;99.90;;;;;;4979543;28;20635;-81
2021/01/28 00:25:53;;;;;;;148.40;42.92;;;5.90;99.90;;;;;;4979081;28;20607;-81
2021/01/28 00:28:21;;;;;;;146.38;41.63;;;5.90;99.90;;;;;;4979026;28;20201;-79
2021/01/28 00:30:51;;;;;;;130.85;40.78;;;5.90;99.90;;;;;;4977259;28;20202;-79
2021/01/28 00:33:19;;;;;;;154.15;46.72;;;5.90;99.90;;;;;;4978656;28;20595;-81
2021/01/28 00:35:47;;;;;;;153.52;44.65;;;5.90;99.90;;;;;;4979304;28;20651;-83
2021/01/28 00:38:16;;;;;;;115.90;40.10;;;5.90;99.90;;;;;;4979714;28;20208;-82
2021/01/28 00:40:42;;;;;;;117.72;41.78;;;5.90;99.90;;;;;;4979712;28;20614;-81
2021/01/28 00:43:09;;;;;;;131.55;40.97;;;5.90;99.90;;;;;;4979251;28;20221;-77
2021/01/28 00:45:35;;;;;;;130.55;42.53;;;5.90;99.90;;;;;;4978869;28;20273;-81
2021/01/28 00:48:03;;;;;;;139.95;43.58;;;5.90;99.90;;;;;;4978925;28;20202;-81
2021/01/28 00:50:33;;;;;;;165.35;45.40;;;5.90;99.90;;;;;;4978820;28;20194;-82
2021/01/28 00:52:59;;;;;;;161.90;43.38;;;5.90;99.90;;;;;;4979134;28;20217;-81
2021/01/28 00:55:25;;;;;;;142.57;44.85;;;5.90;99.90;;;;;;4978620;28;20198;-81
2021/01/28 00:57:52;;;;;;;142.70;40.17;;;5.80;99.90;;;;;;4978101;28;20202;-83
2021/01/28 01:00:23;;;;;;;145.68;41.92;;;5.80;99.90;;;;;;4978348;28;20197;-83
2021/01/28 01:02:49;;;;;;;125.78;43.83;;;5.80;99.90;;;;;;4978556;28;20627;-81
2021/01/28 01:05:18;;;;;;;135.60;40.45;;;5.80;99.90;;;;;;4978223;28;20283;-81
2021/01/28 01:07:46;;;;;;;134.77;43.22;;;5.90;99.90;;;;;;4978007;28;20197;-83
2021/01/28 01:10:25;;;;;;;146.98;44.22;;;5.90;99.90;;;;;;4979181;28;20197;-81
2021/01/28 01:12:51;;;;;;;141.20;44.08;;;5.90;99.90;;;;;;4978329;28;20251;-81
2021/01/28 01:15:18;;;;;;;159.60;48.42;;;5.80;99.90;;;;;;4978692;28;20694;-81
2021/01/28 01:17:44;;;;;;;149.77;49.03;;;5.80;99.90;;;;;;4977530;28;20202;-80
2021/01/28 01:20:12;;;;;;;138.30;43.60;;;5.80;99.90;;;;;;4977835;28;20204;-80
2021/01/28 01:22:41;;;;;;;148.70;45.95;;;5.80;99.90;;;;;;4977566;28;20224;-81
2021/01/28 01:25:08;;;;;;;153.43;49.15;;;5.80;99.90;;;;;;4977663;28;20223;-80
2021/01/28 01:27:35;;;;;;;145.80;44.13;;;5.80;99.90;;;;;;4977080;28;20579;-80
2021/01/28 01:30:01;;;;;;;138.82;45.63;;;5.80;99.90;;;;;;4977208;28;20197;-79
2021/01/28 01:32:27;;;;;;;155.60;44.90;;;5.70;99.90;;;;;;4976411;28;20232;-79
2021/01/28 01:34:53;;;;;;;141.05;44.63;;;5.70;99.90;;;;;;4977224;28;20204;-80
2021/01/28 01:37:19;;;;;;;127.00;42.30;;;5.60;99.90;;;;;;4976766;28;20209;-80
2021/01/28 01:39:47;;;;;;;157.30;42.90;;;5.60;99.90;;;;;;4977787;28;20201;-80
2021/01/28 01:42:13;;;;;;;145.77;39.85;;;5.50;99.90;;;;;;4976242;28;20244;-82
2021/01/28 01:44:39;;;;;;;142.02;45.58;;;5.50;99.90;;;;;;4977683;28;20193;-79
2021/01/28 01:47:29;;;;;;;128.18;46.17;;;5.50;99.90;;;;;;4976664;28;20213;-80
2021/01/28 01:49:56;;;;;;;133.77;42.65;;;5.50;99.90;;;;;;4976928;28;20212;-80
2021/01/28 01:52:25;;;;;;;147.75;44.70;;;5.40;99.90;;;;;;4976372;28;20228;-80
2021/01/28 01:54:53;;;;;;;125.97;38.50;;;5.40;99.90;;;;;;4976290;28;20204;-80
2021/01/28 01:57:29;;;;;;;152.93;43.92;;;5.40;99.90;;;;;;4975705;28;20201;-79
2021/01/28 02:00:03;;;;;;;137.45;39.25;;;5.40;99.90;;;;;;4976493;28;20558;-80
2021/01/28 02:02:33;;;;;;;131.13;40.35;;;5.40;99.90;;;;;;4976065;28;20383;-79
2021/01/28 02:05:08;;;;;;;136.60;39.88;;;5.40;99.90;;;;;;4976428;28;20205;-80
2021/01/28 02:07:35;;;;;;;147.18;43.30;;;5.40;99.90;;;;;;4975665;28;20640;-80
2021/01/28 02:10:02;;;;;;;116.05;36.17;;;5.40;99.90;;;;;;4976489;28;20204;-78
2021/01/28 02:12:28;;;;;;;130.27;39.13;;;5.40;99.90;;;;;;4975518;28;20217;-82
2021/01/28 02:14:55;;;;;;;131.30;38.22;;;5.40;99.90;;;;;;4975616;28;20197;-81
2021/01/28 02:17:23;;;;;;;138.75;39.13;;;5.40;99.90;;;;;;4975954;28;20204;-80
2021/01/28 02:20:04;;;;;;;117.82;37.45;;;5.40;99.90;;;;;;4975941;28;20272;-80
2021/01/28 02:22:39;;;;;;;125.15;40.30;;;5.40;99.90;;;;;;4975722;28;20213;-80
2021/01/28 02:25:17;;;;;;;115.90;37.35;;;5.40;99.90;;;;;;4975563;28;20200;-80
2021/01/28 02:27:45;;;;;;;144.35;40.42;;;5.50;99.90;;;;;;4974884;28;20185;-80
2021/01/28 02:30:14;;;;;;;106.60;37.05;;;5.50;99.90;;;;;;4975723;28;20206;-80
2021/01/28 02:32:40;;;;;;;139.27;38.22;;;5.50;99.90;;;;;;4975996;28;20221;-82
2021/01/28 02:35:09;;;;;;;139.35;40.22;;;5.50;99.90;;;;;;4975219;28;20205;-81
2021/01/28 02:37:35;;;;;;;110.55;32.70;;;5.50;99.90;;;;;;4974787;28;20205;-80
2021/01/28 02:40:01;;;;;;;114.78;35.00;;;5.50;99.90;;;;;;4975847;28;20615;-81
2021/01/28 02:42:31;;;;;;;142.45;38.88;;;5.40;99.90;;;;;;4974683;28;20217;-81
2021/01/28 02:44:58;;;;;;;106.32;35.63;;;5.50;99.90;;;;;;4975693;28;20197;-80
2021/01/28 02:47:24;;;;;;;129.98;36.40;;;5.50;99.90;;;;;;4974925;28;20217;-80
2021/01/28 02:49:50;;;;;;;94.50;32.15;;;5.50;99.90;;;;;;4975818;28;20201;-80
2021/01/28 02:52:17;;;;;;;109.93;31.80;;;5.50;99.90;;;;;;4975494;28;20715;-80
2021/01/28 02:54:45;;;;;;;104.03;32.53;;;5.50;99.90;;;;;;4975542;28;20224;-80
2021/01/28 02:57:12;;;;;;;106.57;32.80;;;5.50;99.90;;;;;;4975053;28;20192;-82
2021/01/28 02:59:39;;;;;;;105.47;33.63;;;5.50;99.90;;;;;;4975319;28;20198;-80
2021/01/28 03:02:08;;;;;;;102.75;31.45;;;5.50;99.90;;;;;;4975827;28;20221;-81
2021/01/28 03:04:35;;;;;;;105.88;35.03;;;5.50;99.90;;;;;;4975249;28;20201;-80
2021/01/28 03:07:01;;;;;;;97.75;30.25;;;5.40;99.90;;;;;;4975089;28;20221;-80
2021/01/28 03:09:27;;;;;;;105.75;31.10;;;5.50;99.90;;;;;;4975199;28;20203;-80
2021/01/28 03:11:53;;;;;;;99.15;31.38;;;5.50;99.90;;;;;;4974569;28;20229;-80
2021/01/28 03:14:20;;;;;;;95.53;32.65;;;5.50;99.90;;;;;;4971808;23;20226;-84
2021/01/28 03:16:47;;;;;;;102.43;29.50;;;5.50;99.90;;;;;;4958604;29;20197;-84
2021/01/28 03:19:13;;;;;;;100.78;30.13;;;5.50;99.90;;;;;;4959882;29;20199;-83
2021/01/28 03:21:39;;;;;;;112.95;30.65;;;5.50;99.90;;;;;;4960463;29;20204;-83
2021/01/28 03:24:07;;;;;;;108.53;31.27;;;5.50;99.90;;;;;;4960181;29;20232;-83
2021/01/28 03:26:33;;;;;;;102.90;30.50;;;5.50;99.90;;;;;;4960518;29;20214;-82
2021/01/28 03:28:59;;;;;;;91.60;27.70;;;5.50;99.90;;;;;;4959860;29;20205;-83
2021/01/28 03:31:25;;;;;;;91.15;29.73;;;5.50;99.90;;;;;;4960456;29;20270;-83
2021/01/28 03:33:55;;;;;;;114.28;28.33;;;5.60;99.90;;;;;;4961194;29;20499;-84
2021/01/28 03:36:21;;;;;;;96.30;28.65;;;5.60;99.90;;;;;;4962889;29;20720;-84
2021/01/28 03:38:47;;;;;;;86.47;27.75;;;5.50;99.90;;;;;;4960516;29;20202;-83
2021/01/28 03:41:13;;;;;;;110.00;30.30;;;5.50;99.90;;;;;;4960369;29;20222;-84
2021/01/28 03:43:40;;;;;;;100.65;29.27;;;5.50;99.90;;;;;;4960429;29;20229;-84
2021/01/28 03:46:06;;;;;;;97.28;30.65;;;5.50;99.90;;;;;;4960196;29;20248;-84
2021/01/28 03:48:32;;;;;;;112.00;29.15;;;5.50;99.90;;;;;;4959977;29;20198;-84
2021/01/28 03:50:59;;;;;;;83.97;27.40;;;5.50;99.90;;;;;;4959910;29;20206;-84
2021/01/28 03:53:25;;;;;;;89.38;29.98;;;5.50;99.90;;;;;;4959958;29;20222;-83
2021/01/28 03:55:52;;;;;;;84.60;30.42;;;5.60;99.90;;;;;;4960078;29;20194;-83
2021/01/28 03:58:18;;;;;;;95.75;30.17;;;5.60;99.90;;;;;;4959804;29;20198;-84
2021/01/28 04:00:44;;;;;;;79.70;30.80;;;5.60;99.90;;;;;;4959173;29;20216;-84
2021/01/28 04:03:10;;;;;;;104.05;33.45;;;5.50;99.90;;;;;;4959858;29;20229;-84
2021/01/28 04:05:37;;;;;;;119.53;33.33;;;5.50;99.90;;;;;;4959423;29;20226;-84
2021/01/28 04:08:04;;;;;;;79.22;29.15;;;5.50;99.90;;;;;;4959363;29;20202;-84
2021/01/28 04:10:34;;;;;;;89.45;29.42;;;5.50;99.90;;;;;;4958903;29;20190;-85
2021/01/28 04:13:00;;;;;;;75.78;28.42;;;5.50;99.90;;;;;;4958882;29;20316;-84
2021/01/28 04:15:26;;;;;;;97.10;31.73;;;5.50;99.90;;;;;;4958658;29;20199;-83
2021/01/28 04:17:54;;;;;;;96.97;29.10;;;5.50;99.90;;;;;;4959239;29;20221;-84
2021/01/28 04:20:22;;;;;;;68.00;26.00;;;5.50;99.90;;;;;;4959016;29;20253;-84
2021/01/28 04:22:48;;;;;;;87.65;26.63;;;5.50;99.90;;;;;;4959184;28;20222;-84
2021/01/28 04:25:17;;;;;;;79.80;28.20;;;5.50;99.90;;;;;;4962773;29;20194;-84
2021/01/28 04:27:44;;;;;;;91.90;30.80;;;5.50;99.90;;;;;;4962429;29;20194;-83
2021/01/28 04:30:14;;;;;;;66.05;26.00;;;5.50;99.90;;;;;;4962810;29;20202;-83
2021/01/28 04:32:40;;;;;;;86.38;27.42;;;5.60;99.90;;;;;;4962532;29;20261;-84
2021/01/28 04:35:08;;;;;;;72.95;26.25;;;5.60;99.90;;;;;;4963073;29;20201;-82
2021/01/28 04:37:35;;;;;;;66.43;24.88;;;5.60;99.90;;;;;;4962042;29;20194;-82
2021/01/28 04:40:03;;;;;;;63.53;24.20;;;5.60;99.90;;;;;;4962893;29;20194;-82
2021/01/28 04:42:41;;;;;;;74.38;26.10;;;5.60;99.90;;;;;;4961299;29;20202;-82
2021/01/28 04:45:09;;;;;;;73.35;24.40;;;5.60;99.90;;;;;;4960260;29;20205;-83
2021/01/28 04:47:37;;;;;;;72.80;24.77;;;5.60;99.90;;;;;;4961920;29;20284;-81
2021/01/28 04:50:05;;;;;;;68.13;27.13;;;5.50;99.90;;;;;;4961972;29;20196;-83
2021/01/28 04:52:38;;;;;;;70.15;26.77;;;5.50;99.90;;;;;;4962255;29;20203;-81
2021/01/28 04:55:09;;;;;;;63.65;24.88;;;5.50;99.90;;;;;;4962320;29;20285;-82
2021/01/28 04:57:36;;;;;;;68.60;27.38;;;5.50;99.90;;;;;;4961990;28;20201;-81
2021/01/28 05:00:05;;;;;;;73.50;24.98;;;5.50;99.90;;;;;;4961666;29;20201;-82
2021/01/28 05:02:32;;;;;;;66.72;25.10;;;5.50;99.90;;;;;;4961397;29;20202;-82
2021/01/28 05:05:02;;;;;;;79.85;25.48;;;5.50;99.90;;;;;;4962251;28;20198;-82
2021/01/28 05:07:32;;;;;;;62.33;25.58;;;5.50;99.90;;;;;;4961039;29;20264;-81
2021/01/28 05:10:09;;;;;;;61.05;25.30;;;5.60;99.90;;;;;;4961273;29;20225;-83
2021/01/28 05:12:36;;;;;;;47.83;22.38;;;5.50;99.90;;;;;;4961033;29;20186;-81
2021/01/28 05:15:15;;;;;;;48.38;21.60;;;5.50;99.90;;;;;;4960790;29;20213;-82
2021/01/28 05:17:44;;;;;;;53.55;22.95;;;5.40;99.90;;;;;;4962390;29;20209;-83
2021/01/28 05:20:15;;;;;;;50.22;23.30;;;5.40;99.90;;;;;;4964125;29;20198;-84
2021/01/28 05:22:44;;;;;;;46.17;23.10;;;5.40;99.90;;;;;;4963999;28;20198;-83
2021/01/28 05:25:18;;;;;;;39.78;19.50;;;5.40;99.90;;;;;;4963479;29;20217;-84
2021/01/28 05:27:47;;;;;;;31.80;18.75;;;5.40;99.90;;;;;;4963130;28;20198;-84
2021/01/28 05:30:17;;;;;;;36.72;20.08;;;5.30;99.90;;;;;;4963269;28;20225;-85
2021/01/28 05:32:46;;;;;;;31.98;18.10;;;5.30;99.90;;;;;;4963128;28;20206;-84
2021/01/28 05:35:16;;;;;;;35.83;17.95;;;5.20;99.90;;;;;;4961800;29;20198;-84
2021/01/28 05:37:43;;;;;;;35.55;17.85;;;5.20;99.90;;;;;;4961824;29;20208;-84
2021/01/28 05:40:12;;;;;;;33.45;18.00;;;5.20;99.90;;;;;;4962116;29;20202;-84
2021/01/28 05:42:40;;;;;;;28.92;17.30;;;5.20;99.90;;;;;;4962562;29;20235;-83
2021/01/28 05:45:26;;;;;;;32.40;18.48;;;5.20;99.90;;;;;;4962214;29;20588;-85
2021/01/28 05:47:52;;;;;;;32.10;18.00;;;5.20;99.90;;;;;;4961346;29;20232;-83
2021/01/28 05:50:22;;;;;;;28.38;16.48;;;5.20;99.90;;;;;;4961458;29;20202;-85
2021/01/28 05:52:49;;;;;;;32.00;19.85;;;5.20;99.90;;;;;;4961569;29;21056;-85
2021/01/28 05:55:18;;;;;;;28.08;17.15;;;5.20;99.90;;;;;;4961490;29;20206;-86
2021/01/28 05:57:51;;;;;;;30.27;16.50;;;5.20;99.90;;;;;;4962393;29;20198;-84
2021/01/28 06:00:25;;;;;;;31.15;17.50;;;5.10;99.90;;;;;;4962293;29;20206;-86
2021/01/28 06:03:18;;;;;;;32.25;17.60;;;5.10;99.90;;;;;;4962732;28;20225;-85
2021/01/28 06:05:55;;;;;;;27.15;16.85;;;5.10;99.90;;;;;;4962861;29;20214;-84
2021/01/28 06:08:51;;;;;;;27.55;16.27;;;5.10;99.90;;;;;;4963756;28;20201;-85
2021/01/28 06:11:49;;;;;;;24.92;15.95;;;5.10;99.90;;;;;;4962787;28;20205;-86
2021/01/28 06:14:53;;;;;;;27.70;14.85;;;5.10;99.90;;;;;;4961896;29;20229;-85
2021/01/28 06:18:08;;;;;;;25.05;13.50;;;5.00;99.90;;;;;;4943252;29;20185;-83
2021/01/28 06:21:03;;;;;;;25.15;16.45;;;5.00;99.90;;;;;;4883945;29;20264;-85
2021/01/28 06:24:01;;;;;;;21.75;14.05;;;5.00;99.90;;;;;;4939982;29;20229;-83
2021/01/28 06:26:36;;;;;;;21.70;14.45;;;5.00;99.90;;;;;;4928250;29;20324;-85
2021/01/28 06:29:25;;;;;;;21.23;13.30;;;5.00;99.90;;;;;;4943725;29;20202;-85
2021/01/28 06:32:10;;;;;;;20.77;13.80;;;4.90;99.90;;;;;;4930475;29;20197;-85
2021/01/28 06:35:02;;;;;;;27.65;14.18;;;4.90;99.90;;;;;;4942540;29;20708;-85
2021/01/28 06:37:43;;;;;;;23.75;13.75;;;4.90;99.90;;;;;;4943342;29;20182;-83
2021/01/28 06:40:14;;;;;;;23.50;13.93;;;4.90;99.90;;;;;;4942318;29;20204;-84
2021/01/28 06:42:54;;;;;;;19.67;11.15;;;4.90;99.90;;;;;;4943152;28;20194;-82
2021/01/28 06:45:24;;;;;;;19.65;11.13;;;4.80;99.90;;;;;;4966694;28;20194;-84
2021/01/28 06:47:55;;;;;;;15.32;12.00;;;4.80;99.90;;;;;;4969050;28;20197;-87
2021/01/28 06:50:28;;;;;;;16.05;10.25;;;4.80;99.90;;;;;;4964906;28;20230;-86
2021/01/28 06:53:06;;;;;;;15.15;10.65;;;4.80;99.90;;;;;;4970505;29;20209;-88
2021/01/28 06:55:47;;;;;;;25.10;11.05;;;4.90;99.90;;;;;;4969277;29;20185;-85
2021/01/28 06:58:40;;;;;;;20.88;11.10;;;4.90;99.90;;;;;;4971152;29;20209;-84
2021/01/28 07:01:14;;;;;;;15.88;9.80;;;4.90;99.90;;;;;;4972842;28;20290;-84
2021/01/28 07:04:01;;;;;;;15.25;9.80;;;4.90;99.90;;;;;;4970748;29;20220;-83
2021/01/28 07:06:32;;;;;;;10.32;7.85;;;4.90;99.90;;;;;;4957394;29;20282;-84
2021/01/28 07:09:24;;;;;;;14.25;8.20;;;4.90;99.90;;;;;;4958533;29;20194;-81
2021/01/28 07:11:55;;;;;;;12.95;8.65;;;4.90;99.90;;;;;;4951472;28;20196;-83
2021/01/28 07:14:22;;;;;;;11.32;7.50;;;4.90;99.90;;;;;;4957900;29;20222;-83
2021/01/28 07:16:54;;;;;;;10.80;7.30;;;4.90;99.90;;;;;;4958610;29;20241;-82
2021/01/28 07:19:25;;;;;;;10.85;7.40;;;4.80;99.90;;;;;;4958697;29;20580;-82
2021/01/28 07:21:53;;;;;;;11.75;7.90;;;4.90;99.90;;;;;;4958996;29;20213;-82
2021/01/28 07:24:33;;;;;;;13.48;8.18;;;4.90;99.90;;;;;;4958156;28;20218;-82
2021/01/28 07:27:02;;;;;;;14.10;7.55;;;4.90;99.90;;;;;;4958746;28;20309;-84
2021/01/28 07:29:55;;;;;;;10.05;7.65;;;4.90;99.90;;;;;;4958236;28;20676;-82
2021/01/28 07:32:57;;;;;;;20.60;8.52;;;4.90;99.90;;;;;;4958277;29;20182;-82
2021/01/28 07:35:41;;;;;;;9.07;6.47;;;4.90;99.90;;;;;;4959393;28;20594;-82
2021/01/28 07:38:47;;;;;;;12.60;8.60;;;5.00;99.90;;;;;;4958532;29;20636;-82
2021/01/28 07:41:54;;;;;;;11.13;8.15;;;5.00;99.90;;;;;;4959217;28;20194;-83
2021/01/28 07:44:45;;;;;;;9.85;7.20;;;5.10;99.90;;;;;;4958183;29;20245;-82
2021/01/28 07:47:47;;;;;;;8.85;6.30;;;5.10;99.90;;;;;;4959595;29;20231;-83
2021/01/28 07:50:29;;;;;;;8.48;6.95;;;5.10;99.90;;;;;;4958932;29;20284;-83
2021/01/28 07:52:55;;;;;;;10.45;8.30;;;5.10;99.90;;;;;;4957987;29;20236;-84
2021/01/28 07:55:40;;;;;;;9.15;7.05;;;5.10;99.90;;;;;;4957865;29;20260;-82
2021/01/28 07:58:18;;;;;;;13.00;9.00;;;5.10;99.90;;;;;;4960402;28;20201;-81
2021/01/28 08:00:45;;;;;;;14.85;9.20;;;5.10;99.90;;;;;;4966889;29;20193;-81
2021/01/28 08:03:22;;;;;;;13.30;8.98;;;5.10;99.90;;;;;;4965648;29;20387;-83
2021/01/28 08:05:54;;;;;;;12.60;9.13;;;5.10;99.90;;;;;;4961508;29;20198;-81
2021/01/28 08:08:21;;;;;;;19.90;10.35;;;5.10;99.90;;;;;;4962294;28;20183;-81
2021/01/28 08:10:47;;;;;;;16.75;9.07;;;5.10;99.90;;;;;;4961794;29;20202;-82
2021/01/28 08:13:22;;;;;;;13.15;8.88;;;5.10;99.90;;;;;;4959490;28;20230;-82
2021/01/28 08:15:53;;;;;;;13.95;9.07;;;5.20;99.90;;;;;;4960058;28;20202;-81
2021/01/28 08:18:22;;;;;;;10.43;7.88;;;5.20;99.90;;;;;;4963091;28;20201;-83
2021/01/28 08:20:50;;;;;;;11.35;7.45;;;5.10;99.90;;;;;;4966786;29;20202;-84
2021/01/28 08:23:19;;;;;;;9.50;7.35;;;5.10;99.90;;;;;;4966490;28;20285;-84
2021/01/28 08:25:53;;;;;;;9.50;6.75;;;5.00;99.90;;;;;;4966059;28;20600;-84
2021/01/28 08:28:20;;;;;;;10.38;7.22;;;5.00;99.90;;;;;;4966084;29;20200;-83
2021/01/28 08:30:46;;;;;;;8.73;6.60;;;5.00;99.90;;;;;;4962782;29;20198;-83
2021/01/28 08:33:21;;;;;;;10.50;6.80;;;5.00;99.90;;;;;;4962274;29;20214;-82
2021/01/28 08:35:50;;;;;;;8.45;6.00;;;4.90;99.90;;;;;;4964438;29;20208;-80
2021/01/28 08:38:20;;;;;;;12.30;7.20;;;4.90;99.90;;;;;;4962868;29;20205;-83
2021/01/28 08:41:00;;;;;;;12.27;8.10;;;5.00;99.90;;;;;;4965277;28;20243;-82
2021/01/28 08:43:26;;;;;;;10.65;6.60;;;5.00;99.90;;;;;;4964825;29;20213;-82
2021/01/28 08:46:06;;;;;;;15.95;6.28;;;5.00;99.90;;;;;;4963243;29;20200;-82
2021/01/28 08:48:33;;;;;;;10.93;6.38;;;5.00;99.90;;;;;;4965145;28;20289;-83
2021/01/28 08:51:09;;;;;;;10.70;6.82;;;5.00;99.90;;;;;;4962408;29;20194;-83
2021/01/28 08:53:36;;;;;;;9.95;7.38;;;5.00;99.90;;;;;;4964020;29;20308;-83
2021/01/28 08:56:15;;;;;;;9.82;7.15;;;5.00;99.90;;;;;;4962607;29;20253;-82
2021/01/28 08:58:42;;;;;;;7.38;6.03;;;5.00;99.90;;;;;;4962646;29;20202;-84
2021/01/28 09:01:10;;;;;;;10.07;7.18;;;5.00;99.90;;;;;;4961263;29;20194;-84
2021/01/28 09:03:56;;;;;;;9.60;7.20;;;4.90;99.90;;;;;;4958919;28;20218;-83
2021/01/28 09:06:23;;;;;;;13.73;7.90;;;4.90;99.90;;;;;;4940674;29;20203;-81
2021/01/28 09:09:01;;;;;;;10.95;8.35;;;4.90;99.90;;;;;;4940774;29;20261;-81
2021/01/28 09:11:30;;;;;;;11.18;8.10;;;5.00;99.90;;;;;;4941178;29;20248;-81
2021/01/28 09:14:32;;;;;;;9.52;7.20;;;4.90;99.90;;;;;;4960414;29;20229;-81
2021/01/28 09:17:01;;;;;;;7.85;6.38;;;4.90;99.90;;;;;;4961537;29;20194;-81
2021/01/28 09:19:31;;;;;;;9.55;6.40;;;4.90;99.90;;;;;;4961628;29;20292;-82
2021/01/28 09:22:00;;;;;;;14.00;7.65;;;4.90;99.90;;;;;;4960326;29;20247;-81
2021/01/28 09:24:43;;;;;;;8.93;6.10;;;4.80;99.90;;;;;;4966526;28;20222;-81
2021/01/28 09:27:24;;;;;;;9.65;6.53;;;4.80;99.90;;;;;;4962255;28;20212;-80
2021/01/28 09:29:52;;;;;;;8.90;6.15;;;4.80;99.90;;;;;;4960407;29;20839;-83
2021/01/28 09:32:32;;;;;;;12.13;6.05;;;4.90;99.90;;;;;;4960395;29;20202;-81
2021/01/28 09:35:24;;;;;;;9.30;6.70;;;4.90;99.90;;;;;;4960802;28;20225;-81
2021/01/28 09:38:04;;;;;;;8.43;5.97;;;4.90;99.90;;;;;;4958784;28;20541;-82
2021/01/28 09:40:35;;;;;;;8.40;6.07;;;4.90;99.90;;;;;;4960713;29;20178;-82
2021/01/28 09:43:21;;;;;;;11.00;6.50;;;4.90;99.90;;;;;;4959841;29;20291;-82
2021/01/28 09:46:14;;;;;;;8.65;6.90;;;4.90;99.90;;;;;;4960258;29;20200;-81
2021/01/28 09:48:41;;;;;;;6.90;5.60;;;4.90;99.90;;;;;;4960000;29;20628;-82
2021/01/28 09:51:10;;;;;;;9.55;6.57;;;4.90;99.90;;;;;;4960208;29;20202;-83
2021/01/28 09:53:37;;;;;;;11.95;7.55;;;4.90;99.90;;;;;;4962202;29;20248;-82
2021/01/28 09:56:04;;;;;;;11.63;7.20;;;4.90;99.90;;;;;;4960825;29;20197;-81
2021/01/28 09:58:30;;;;;;;13.13;8.27;;;4.90;99.90;;;;;;4965510;29;20244;-82
2021/01/28 10:00:56;;;;;;;10.02;6.43;;;4.90;99.90;;;;;;4960376;29;20241;-81
2021/01/28 10:03:24;;;;;;;9.82;6.80;;;4.90;99.90;;;;;;4960205;29;20229;-82
2021/01/28 10:05:50;;;;;;;10.77;7.18;;;4.90;99.90;;;;;;4959684;28;20198;-82
2021/01/28 10:08:19;;;;;;;9.93;7.70;;;4.90;99.90;;;;;;4958564;29;20266;-83
2021/01/28 10:10:45;;;;;;;9.35;7.20;;;5.00;99.90;;;;;;4958194;28;20229;-81
2021/01/28 10:13:14;;;;;;;13.02;7.75;;;5.00;99.90;;;;;;4966559;28;20233;-83
2021/01/28 10:15:41;;;;;;;12.73;7.70;;;5.00;99.90;;;;;;4971727;29;20189;-82
2021/01/28 10:18:07;;;;;;;7.97;6.85;;;5.00;99.90;;;;;;4969972;29;20205;-84
2021/01/28 10:20:33;;;;;;;8.15;7.32;;;5.00;99.90;;;;;;4962111;28;20198;-83
2021/01/28 10:23:02;;;;;;;10.23;7.28;;;5.00;99.90;;;;;;4960233;28;20315;-84
2021/01/28 10:25:29;;;;;;;8.48;7.10;;;5.00;99.90;;;;;;4960888;28;20195;-83
2021/01/28 10:27:56;;;;;;;9.45;6.43;;;5.00;99.90;;;;;;4961222;29;20210;-83
2021/01/28 10:30:23;;;;;;;7.60;6.05;;;5.00;99.90;;;;;;4959689;29;20201;-83
2021/01/28 10:32:51;;;;;;;6.78;4.75;;;5.00;99.90;;;;;;4960147;29;20198;-84
2021/01/28 10:35:20;;;;;;;8.73;6.75;;;5.00;99.90;;;;;;4961544;29;20198;-84
2021/01/28 10:37:46;;;;;;;9.48;5.40;;;5.00;99.90;;;;;;4961357;29;20429;-84
2021/01/28 10:40:14;;;;;;;7.85;5.63;;;5.00;99.90;;;;;;4962168;29;20201;-84
2021/01/28 10:42:43;;;;;;;6.93;5.32;;;5.00;99.90;;;;;;4961848;28;20202;-84
2021/01/28 10:45:14;;;;;;;8.30;4.50;;;5.10;99.90;;;;;;4961950;29;20209;-83
2021/01/28 10:47:40;;;;;;;6.68;5.15;;;5.10;99.90;;;;;;4960954;29;20222;-84
2021/01/28 10:50:08;;;;;;;5.45;4.80;;;5.00;99.90;;;;;;4960721;29;20205;-84
2021/01/28 10:52:34;;;;;;;5.07;4.10;;;5.10;99.90;;;;;;4961339;29;20194;-84
2021/01/28 10:55:01;;;;;;;5.72;4.57;;;5.10;99.90;;;;;;4960984;29;20196;-84
2021/01/28 10:57:27;;;;;;;5.97;4.50;;;5.10;99.90;;;;;;4962073;29;20703;-83
2021/01/28 10:59:54;;;;;;;6.75;4.43;;;5.20;99.90;;;;;;4960884;29;20261;-83
2021/01/28 11:02:20;;;;;;;4.50;4.10;;;5.20;99.90;;;;;;4958440;29;20202;-83
2021/01/28 11:04:46;;;;;;;5.43;4.93;;;5.20;99.90;;;;;;4958629;28;20213;-81
2021/01/28 11:07:13;;;;;;;9.30;4.45;;;5.20;99.90;;;;;;4958771;28;20253;-82
2021/01/28 11:09:39;;;;;;;4.47;3.85;;;5.20;99.90;;;;;;4959289;29;20629;-82
2021/01/28 11:12:06;;;;;;;6.70;3.75;;;5.20;99.90;;;;;;4959882;29;20206;-82
2021/01/28 11:14:32;;;;;;;10.07;4.97;;;5.20;99.90;;;;;;4962937;29;20225;-83
2021/01/28 11:16:59;;;;;;;4.70;4.13;;;5.20;99.90;;;;;;4959113;29;20345;-83
2021/01/28 11:19:26;;;;;;;6.60;4.72;;;5.20;99.90;;;;;;4959648;29;20265;-83
2021/01/28 11:21:52;;;;;;;6.20;5.00;;;5.20;99.90;;;;;;4959766;29;20202;-82
2021/01/28 11:24:18;;;;;;;13.82;5.55;;;5.20;99.90;;;;;;4958070;28;20886;-82
2021/01/28 11:26:45;;;;;;;8.45;5.22;;;5.20;99.90;;;;;;4958239;28;20736;-83
2021/01/28 11:29:11;;;;;;;6.70;5.75;;;5.10;99.90;;;;;;4958498;29;20198;-84
2021/01/28 11:31:37;;;;;;;13.57;7.18;;;5.10;99.90;;;;;;4959234;28;20198;-84
2021/01/28 11:34:05;;;;;;;11.43;7.38;;;5.10;99.90;;;;;;4963474;29;20704;-82
2021/01/28 11:36:32;;;;;;;11.73;8.65;;;5.10;99.90;;;;;;4962040;29;20205;-82
2021/01/28 11:38:58;;;;;;;14.48;9.77;;;5.10;99.90;;;;;;4963048;29;20229;-82
2021/01/28 11:41:26;;;;;;;16.25;11.55;;;5.10;99.90;;;;;;4962715;29;20205;-84
2021/01/28 11:43:52;;;;;;;18.27;11.82;;;5.20;99.90;;;;;;4962177;29;20615;-84
2021/01/28 11:46:18;;;;;;;15.95;12.32;;;5.10;99.90;;;;;;4961841;29;20214;-84
2021/01/28 11:48:44;;;;;;;17.95;11.13;;;5.10;99.90;;;;;;4962633;29;20202;-83
2021/01/28 11:51:11;;;;;;;15.57;10.60;;;5.20;99.90;;;;;;4962083;29;20265;-84
2021/01/28 11:53:37;;;;;;;14.45;10.23;;;5.20;99.90;;;;;;4962860;29;20221;-83
2021/01/28 11:56:04;;;;;;;16.00;11.30;;;5.20;99.90;;;;;;4961718;29;20198;-82
2021/01/28 11:58:30;;;;;;;14.73;10.35;;;5.20;99.90;;;;;;4962028;29;20194;-84
2021/01/28 12:00:57;;;;;;;17.65;10.32;;;5.20;99.90;;;;;;4962857;29;20206;-83
2021/01/28 12:03:23;;;;;;;14.23;9.10;;;5.30;99.90;;;;;;4962249;29;20218;-83
2021/01/28 12:05:49;;;;;;;14.75;9.90;;;5.20;99.90;;;;;;4962954;29;20249;-82
2021/01/28 12:08:16;;;;;;;15.07;10.18;;;5.20;99.90;;;;;;4962774;29;20576;-83
2021/01/28 12:10:43;;;;;;;14.63;9.73;;;5.20;99.90;;;;;;4963290;29;20265;-84
2021/01/28 12:13:09;;;;;;;14.55;9.77;;;5.20;99.90;;;;;;4962107;29;20355;-83
2021/01/28 12:15:35;;;;;;;17.75;10.05;;;5.20;99.90;;;;;;4961731;29;20194;-85
2021/01/28 12:18:01;;;;;;;15.13;9.93;;;5.30;99.90;;;;;;4961096;29;20194;-84
2021/01/28 12:20:30;;;;;;;11.80;8.35;;;5.30;99.90;;;;;;4962244;29;20202;-85
2021/01/28 12:22:57;;;;;;;12.07;10.00;;;5.40;99.90;;;;;;4961466;28;20229;-84
2021/01/28 12:25:26;;;;;;;14.32;9.77;;;5.40;99.90;;;;;;4965012;28;20198;-84
2021/01/28 12:27:52;;;;;;;12.38;8.07;;;5.40;99.90;;;;;;4979906;28;20264;-82
2021/01/28 12:30:21;;;;;;;11.50;8.25;;;5.50;99.90;;;;;;4980296;28;20232;-83
2021/01/28 12:32:48;;;;;;;12.48;7.22;;;5.50;99.90;;;;;;4980221;28;20250;-83
2021/01/28 12:35:15;;;;;;;10.65;7.80;;;5.50;99.90;;;;;;4980210;28;20204;-84
2021/01/28 12:37:42;;;;;;;10.82;7.60;;;5.60;99.90;;;;;;4980734;28;20209;-84
2021/01/28 12:40:11;;;;;;;9.40;7.40;;;5.70;99.90;;;;;;4980961;28;20571;-83
2021/01/28 12:42:39;;;;;;;12.93;8.27;;;5.70;99.90;;;;;;4978838;28;20205;-83
2021/01/28 12:45:07;;;;;;;9.43;7.47;;;5.80;99.90;;;;;;4961464;28;20194;-83
2021/01/28 12:47:33;;;;;;;11.55;7.72;;;5.80;99.90;;;;;;4961774;29;20711;-83
2021/01/28 12:50:00;;;;;;;8.88;6.88;;;5.90;99.90;;;;;;4961262;29;20228;-84
2021/01/28 12:52:26;;;;;;;11.02;7.63;;;5.90;99.90;;;;;;4962351;29;20202;-83
2021/01/28 12:54:52;;;;;;;10.77;7.88;;;5.80;99.90;;;;;;4961679;29;20225;-84
2021/01/28 12:57:19;;;;;;;10.07;7.65;;;5.70;99.90;;;;;;4961627;28;20197;-84
2021/01/28 12:59:46;;;;;;;11.10;7.72;;;5.70;99.90;;;;;;4960704;28;20194;-83